Aeroporto :







RITROVATECI SU...

 
LOGIN :

Iscrizione | Disclaimer

   EN    FR    IT 

 









Sommario :    VFR   VFR Marginale   IFR   IFR Intensivo   IFR Molto Intensivo
Visibilità : 
Base nubi : 
>= 8 km
>= 3000ft
5 / 8 km
1000 / 3000 ft
1500m / 5 km
500 / 1000 ft
800 / 1500m
200 / 500 ft
< 800m
< 200 ft
Simboli :   Temporali  Nebbia  Neve Forte  Precipitazioni Forti  Vento > 20 kt






- Altitudine del aeroporto : 59 ft
- Codice IATA : PBM


SMJP - J.A. Pengel Int.

ULTIMO METAR :
  • 040900Z 27001KT 9999 FEW001 SCT020 23/23 Q1010 NOSIG

METARs OBSOLETI :
  • 040800Z 00000KT CAVOK 23/23 Q1010 NOSIG
  • 040700Z 00000KT 9999 FEW030 23/23 Q1010 NOSIG

TAF TAF SMJP
Valido dal 04 a 06 ore il 05 a 06 ore UTC


040400Z 0406/0506 VRB02KT 9999 FEW025 TX32/0418Z TN23/0409Z
PROB30
TEMPO 0408/0411 2000 BR SCT002
FM041200 08008KT 9999 SCT015
TEMPO 0415/0420 4000 SHRA FEW015CB SCT020



MetMap, La meteo Aeronautica in un colpo d'occhio ! - Copyright ORBIFLY Dicembre 2007 - Disclaimer

ORBIFLY MET'MAP TEAM :

Programmazione e sviluppo : Alexandra Zaïnal
Concezione : Baudouin d'Aumeries
Aiuto per la programmazione : Marc-Olivier Méhu
Supporto tecnico e logistico : Manuel Goepfert
Aiuto per la traduzione : Arnaldo La Scala

Contatto : metmap@orbifly.com




FONTI E CREDITI :

   NOAA